createdAt,value
2018-11-06T00:00:37.153Z,94784.59
2018-11-06T00:03:30.540Z,94782.50
2018-11-06T00:06:02.347Z,94778.12
2018-11-06T00:08:34.174Z,94779.54
2018-11-06T00:11:06.799Z,94779.16
2018-11-06T00:13:39.154Z,94782.80
2018-11-06T00:16:11.169Z,94783.05
2018-11-06T00:18:43.016Z,94775.88
2018-11-06T00:21:14.832Z,94772.00
2018-11-06T00:23:46.676Z,94771.80
2018-11-06T00:26:18.482Z,94768.92
2018-11-06T00:28:50.301Z,94767.23
2018-11-06T00:31:22.101Z,94765.78
2018-11-06T00:33:53.944Z,94770.25
2018-11-06T00:36:25.737Z,94769.72
2018-11-06T00:38:57.568Z,94770.16
2018-11-06T00:41:29.373Z,94771.80
2018-11-06T00:44:01.204Z,94774.70
2018-11-06T00:46:33.021Z,94776.21
2018-11-06T00:49:04.851Z,94762.80
2018-11-06T00:51:36.649Z,94770.77
2018-11-06T00:54:08.946Z,94774.19
2018-11-06T00:56:40.750Z,94770.59
2018-11-06T00:59:12.696Z,94771.66
2018-11-06T01:01:44.581Z,94774.58
2018-11-06T01:04:16.420Z,94766.27
2018-11-06T01:06:48.236Z,94777.48
2018-11-06T01:09:20.452Z,94775.30
2018-11-06T01:11:52.250Z,94773.69
2018-11-06T01:14:24.196Z,94776.91
2018-11-06T01:16:55.998Z,94777.36
2018-11-06T01:19:27.829Z,94766.84
2018-11-06T01:21:59.643Z,94769.61
2018-11-06T01:24:31.483Z,94766.84
2018-11-06T01:27:03.287Z,94764.00
2018-11-06T01:29:35.138Z,94761.66
2018-11-06T01:32:07.230Z,94758.55
2018-11-06T01:34:39.309Z,94764.10
2018-11-06T01:37:11.114Z,94762.73
2018-11-06T01:39:42.946Z,94759.45
2018-11-06T01:42:14.740Z,94761.09
2018-11-06T01:44:46.568Z,94757.50
2018-11-06T01:47:18.388Z,94759.41
2018-11-06T01:49:50.216Z,94760.59
2018-11-06T01:52:22.012Z,94753.02
2018-11-06T01:54:53.824Z,94750.09
2018-11-06T01:57:25.621Z,94744.05
2018-11-06T01:59:57.431Z,94751.34
2018-11-06T02:02:29.276Z,94756.20
2018-11-06T02:05:01.095Z,94750.75
2018-11-06T02:07:32.908Z,94750.30
2018-11-06T02:10:04.739Z,94741.49
2018-11-06T02:12:36.540Z,94741.90
2018-11-06T02:15:09.091Z,94748.03
2018-11-06T02:17:42.252Z,94748.86
2018-11-06T02:20:14.763Z,94750.70
2018-11-06T02:22:47.029Z,94744.04
2018-11-06T02:25:18.874Z,94746.32
2018-11-06T02:27:50.684Z,94744.62
2018-11-06T02:30:22.654Z,94747.91
2018-11-06T02:32:54.324Z,94744.83
2018-11-06T02:35:26.161Z,94746.23
2018-11-06T02:37:57.963Z,94742.48
2018-11-06T02:40:29.780Z,94752.32
2018-11-06T02:43:01.563Z,94745.82
2018-11-06T02:45:33.364Z,94745.32
2018-11-06T02:48:05.166Z,94749.33
2018-11-06T02:50:36.978Z,94750.48
2018-11-06T02:53:08.789Z,94753.48
2018-11-06T02:55:40.688Z,94753.48
2018-11-06T02:58:12.430Z,94754.48
2018-11-06T03:00:44.298Z,94752.16
2018-11-06T03:03:16.102Z,94748.73
2018-11-06T03:05:47.943Z,94746.78
2018-11-06T03:08:19.752Z,94753.52
2018-11-06T03:10:51.590Z,94749.41
2018-11-06T03:13:23.386Z,94756.44
2018-11-06T03:15:55.214Z,94756.61
2018-11-06T03:18:27.228Z,94750.48
2018-11-06T03:20:59.091Z,94755.94
2018-11-06T03:23:30.879Z,94755.81
2018-11-06T03:26:02.702Z,94748.66
2018-11-06T03:28:34.515Z,94757.14
2018-11-06T03:31:06.357Z,94752.69
2018-11-06T03:33:38.144Z,94754.44
2018-11-06T03:36:09.984Z,94753.36
2018-11-06T03:38:41.789Z,94746.57
2018-11-06T03:41:13.608Z,94755.23
2018-11-06T03:43:45.495Z,94755.44
2018-11-06T03:46:17.336Z,94758.06
2018-11-06T03:48:49.145Z,94755.64
2018-11-06T03:51:20.979Z,94751.23
2018-11-06T03:53:52.770Z,94751.23
2018-11-06T03:56:24.613Z,94755.48
2018-11-06T03:58:56.428Z,94762.89
2018-11-06T04:01:28.235Z,94756.89
2018-11-06T04:04:00.007Z,94755.23
2018-11-06T04:06:32.034Z,94755.81
2018-11-06T04:09:03.963Z,94755.97
2018-11-06T04:11:35.780Z,94755.48
2018-11-06T04:14:08.411Z,94750.11
2018-11-06T04:16:40.688Z,94754.84
2018-11-06T04:19:12.481Z,94760.39
2018-11-06T04:21:44.311Z,94755.27
2018-11-06T04:24:16.141Z,94752.10
2018-11-06T04:26:47.954Z,94747.10
2018-11-06T04:29:19.720Z,94748.52
2018-11-06T04:31:51.526Z,94746.67
2018-11-06T04:34:23.310Z,94738.78
2018-11-06T04:36:57.335Z,94739.12
2018-11-06T04:39:26.875Z,94737.24
2018-11-06T04:41:58.672Z,94735.49
2018-11-06T04:44:30.499Z,94735.08
2018-11-06T04:47:02.303Z,94727.33
2018-11-06T04:49:34.111Z,94730.03
2018-11-06T04:52:06.165Z,94728.03
2018-11-06T04:54:38.043Z,94729.55
2018-11-06T04:57:09.829Z,94725.33
2018-11-06T04:59:41.608Z,94729.08
2018-11-06T05:02:13.475Z,94732.02
2018-11-06T05:04:45.232Z,94725.58
2018-11-06T05:07:17.073Z,94724.63
2018-11-06T05:09:48.856Z,94732.42
2018-11-06T05:12:20.647Z,94742.18
2018-11-06T05:14:52.568Z,94742.05
2018-11-06T05:17:24.496Z,94743.08
2018-11-06T05:19:56.300Z,94738.23
2018-11-06T05:22:28.356Z,94738.23
2018-11-06T05:25:00.186Z,94732.83
2018-11-06T05:27:32.069Z,94732.02
2018-11-06T05:30:03.798Z,94735.06
2018-11-06T05:32:35.591Z,94735.09
2018-11-06T05:35:08.776Z,94735.65
2018-11-06T05:37:40.925Z,94744.52
2018-11-06T05:41:08.027Z,94738.75
2018-11-06T05:43:40.162Z,94742.86
2018-11-06T05:46:11.975Z,94739.23
2018-11-06T05:48:43.784Z,94738.72
2018-11-06T05:51:15.833Z,94739.79
2018-11-06T05:53:47.596Z,94736.97
2018-11-06T05:56:19.439Z,94736.11
2018-11-06T05:58:51.324Z,94741.61
2018-11-06T06:01:23.250Z,94740.96
2018-11-06T06:03:55.153Z,94741.85
2018-11-06T06:06:27.051Z,94750.33
2018-11-06T06:08:58.911Z,94755.14
2018-11-06T06:11:30.696Z,94750.30
2018-11-06T06:14:02.556Z,94751.13
2018-11-06T06:16:34.487Z,94758.43
2018-11-06T06:19:06.675Z,94758.28
2018-11-06T06:21:38.526Z,94758.33
2018-11-06T06:24:10.343Z,94760.89
2018-11-06T06:26:42.217Z,94753.67
2018-11-06T06:29:14.082Z,94757.58
2018-11-06T06:31:45.967Z,94752.54
2018-11-06T06:34:17.842Z,94760.74
2018-11-06T06:36:49.646Z,94754.10
2018-11-06T06:39:21.484Z,94761.23
2018-11-06T06:41:53.296Z,94756.31
2018-11-06T06:44:25.263Z,94757.67
2018-11-06T06:46:57.047Z,94750.81
2018-11-06T06:49:28.850Z,94762.89
2018-11-06T06:52:00.748Z,94749.73
2018-11-06T06:54:32.940Z,94753.86
2018-11-06T06:57:06.200Z,94746.41
2018-11-06T06:59:38.030Z,94755.52
2018-11-06T07:02:09.806Z,94750.11
2018-11-06T07:04:41.683Z,94747.80
2018-11-06T07:07:13.650Z,94751.68
2018-11-06T07:09:45.644Z,94761.44
2018-11-06T07:12:17.353Z,94757.59
2018-11-06T07:14:49.288Z,94757.52
2018-11-06T07:17:21.132Z,94753.25
2018-11-06T07:19:53.092Z,94753.64
2018-11-06T07:22:24.945Z,94766.45
2018-11-06T07:24:57.044Z,94767.35
2018-11-06T07:27:28.993Z,94753.81
2018-11-06T07:30:00.865Z,94738.62
2018-11-06T07:32:32.782Z,94737.13
2018-11-06T07:35:05.052Z,94736.43
2018-11-06T07:37:36.842Z,94736.76
2018-11-06T07:40:10.513Z,94727.23
2018-11-06T07:42:42.803Z,94727.95
2018-11-06T07:45:19.096Z,94724.80
2018-11-06T07:47:50.888Z,94720.83
2018-11-06T07:50:22.832Z,94728.32
2018-11-06T07:52:54.718Z,94715.40
2018-11-06T07:55:26.738Z,94714.58
2018-11-06T07:57:58.555Z,94724.94
2018-11-06T08:00:30.560Z,94723.82
2018-11-06T08:03:02.579Z,94718.27
2018-11-06T08:05:34.408Z,94706.48
2018-11-06T08:08:06.694Z,94695.86
2018-11-06T08:10:38.548Z,94700.58
2018-11-06T08:13:10.410Z,94710.20
2018-11-06T08:15:42.314Z,94701.03
2018-11-06T08:18:14.173Z,94698.19
2018-11-06T08:20:46.144Z,94695.82
2018-11-06T08:23:17.934Z,94697.54
2018-11-06T08:25:49.912Z,94695.63
2018-11-06T08:28:21.746Z,94695.80
2018-11-06T08:30:53.919Z,94692.05
2018-11-06T08:33:25.471Z,94691.88
2018-11-06T08:35:57.449Z,94686.47
2018-11-06T08:38:29.361Z,94691.62
2018-11-06T08:41:01.208Z,94679.02
2018-11-06T08:43:33.032Z,94679.73
2018-11-06T08:46:04.888Z,94682.06
2018-11-06T08:48:36.726Z,94674.36
2018-11-06T08:51:08.779Z,94671.73
2018-11-06T08:53:40.776Z,94665.09
2018-11-06T08:56:12.645Z,94653.79
2018-11-06T08:58:44.700Z,94651.25
2018-11-06T09:01:18.074Z,94655.33
2018-11-06T09:03:49.976Z,94655.44
2018-11-06T09:06:21.902Z,94650.53
2018-11-06T09:08:53.747Z,94656.45
2018-11-06T09:11:25.616Z,94649.50
2018-11-06T09:13:57.432Z,94659.65
2018-11-06T09:16:29.486Z,94659.06
2018-11-06T09:19:01.298Z,94653.52
2018-11-06T09:21:33.057Z,94659.06
2018-11-06T09:24:04.960Z,94653.19
2018-11-06T09:26:37.082Z,94656.98
2018-11-06T09:29:09.429Z,94658.56
2018-11-06T09:31:41.275Z,94665.68
2018-11-06T09:34:13.186Z,94659.19
2018-11-06T09:36:45.076Z,94657.75
2018-11-06T09:39:19.794Z,94653.69
2018-11-06T09:41:51.711Z,94648.81
2018-11-06T09:44:23.581Z,94645.45
2018-11-06T09:46:55.477Z,94643.26
2018-11-06T09:49:27.366Z,94645.99
2018-11-06T09:51:59.252Z,94644.22
2018-11-06T09:54:30.986Z,94642.00
2018-11-06T09:57:02.974Z,94637.46
2018-11-06T09:59:34.787Z,94639.33
2018-11-06T10:02:06.658Z,94634.00
2018-11-06T10:04:38.549Z,94628.05
2018-11-06T10:07:11.048Z,94629.75
2018-11-06T10:09:42.697Z,94624.83
2018-11-06T10:12:14.518Z,94620.39
2018-11-06T10:14:46.371Z,94621.94
2018-11-06T10:17:18.207Z,94624.44
2018-11-06T10:19:50.045Z,94620.28
2018-11-06T10:22:21.932Z,94614.84
2018-11-06T10:24:53.766Z,94621.20
2018-11-06T10:27:25.656Z,94622.22
2018-11-06T10:29:57.487Z,94616.34
2018-11-06T10:32:29.329Z,94616.15
2018-11-06T10:35:01.272Z,94611.77
2018-11-06T10:37:33.153Z,94614.99
2018-11-06T10:40:05.505Z,94612.55
2018-11-06T10:42:37.405Z,94608.22
2018-11-06T10:45:09.699Z,94616.25
2018-11-06T10:47:42.274Z,94610.00
2018-11-06T10:50:15.268Z,94604.45
2018-11-06T10:52:47.762Z,94611.34
2018-11-06T10:55:19.641Z,94614.47
2018-11-06T10:57:51.653Z,94617.64
2018-11-06T11:00:40.638Z,94606.41
2018-11-06T11:03:29.973Z,94602.61
2018-11-06T11:06:01.961Z,94603.95
2018-11-06T11:08:33.889Z,94598.69
2018-11-06T11:11:05.605Z,94593.17
2018-11-06T11:13:37.485Z,94593.82
2018-11-06T11:16:09.321Z,94583.92
2018-11-06T11:18:41.196Z,94580.30
2018-11-06T11:21:13.632Z,94578.98
2018-11-06T11:23:45.502Z,94577.25
2018-11-06T11:26:17.337Z,94568.06
2018-11-06T11:28:49.415Z,94572.09
2018-11-06T11:31:21.283Z,94568.88
2018-11-06T11:33:53.164Z,94563.70
2018-11-06T11:36:24.929Z,94558.73
2018-11-06T11:38:56.799Z,94566.54
2018-11-06T11:41:28.722Z,94564.09
2018-11-06T11:44:00.576Z,94559.34
2018-11-06T11:46:32.387Z,94561.80
2018-11-06T11:49:04.267Z,94558.36
2018-11-06T11:51:36.103Z,94560.07
2018-11-06T11:54:11.028Z,94553.17
2018-11-06T11:56:42.978Z,94551.06
2018-11-06T11:59:14.812Z,94544.58
2018-11-06T12:01:46.652Z,94539.52
2018-11-06T12:04:18.643Z,94539.52
2018-11-06T12:06:50.607Z,94545.38
2018-11-06T12:09:22.334Z,94541.24
2018-11-06T12:11:54.182Z,94544.69
2018-11-06T12:14:26.083Z,94550.98
2018-11-06T12:16:57.973Z,94538.70
2018-11-06T12:19:29.823Z,94533.95
2018-11-06T12:22:01.627Z,94534.57
2018-11-06T12:24:33.560Z,94530.52
2018-11-06T12:27:05.482Z,94527.96
2018-11-06T12:29:37.433Z,94524.80
2018-11-06T12:32:09.284Z,94517.06
2018-11-06T12:34:41.169Z,94511.86
2018-11-06T12:37:13.011Z,94511.91
2018-11-06T12:39:44.877Z,94511.50
2018-11-06T12:42:16.951Z,94517.91
2018-11-06T12:44:48.805Z,94511.13
2018-11-06T12:47:20.624Z,94501.00
2018-11-06T12:49:52.487Z,94508.66
2018-11-06T12:52:24.318Z,94505.70
2018-11-06T12:54:56.241Z,94500.66
2018-11-06T12:57:28.193Z,94506.26
2018-11-06T13:00:00.056Z,94500.84
2018-11-06T13:02:31.847Z,94505.41
2018-11-06T13:05:38.215Z,94503.53
2018-11-06T13:08:10.185Z,94501.97
2018-11-06T13:10:42.092Z,94507.10
2018-11-06T13:13:13.922Z,94494.30
2018-11-06T13:15:45.882Z,94496.88
2018-11-06T13:18:17.635Z,94499.48
2018-11-06T13:20:49.526Z,94498.05
2018-11-06T13:23:21.399Z,94493.78
2018-11-06T13:25:53.415Z,94491.64
2018-11-06T13:28:25.185Z,94492.28
2018-11-06T13:30:57.070Z,94491.78
2018-11-06T13:33:28.938Z,94496.64
2018-11-06T13:36:00.845Z,94498.91
2018-11-06T13:38:33.019Z,94492.26
2018-11-06T13:41:04.938Z,94486.92
2018-11-06T13:43:36.858Z,94483.83
2018-11-06T13:46:08.727Z,94482.97
2018-11-06T13:48:40.484Z,94480.02
2018-11-06T13:51:12.422Z,94479.92
2018-11-06T13:53:44.617Z,94487.59
2018-11-06T13:56:16.793Z,94483.81
2018-11-06T13:58:48.662Z,94479.34
2018-11-06T14:01:20.708Z,94477.20
2018-11-06T14:03:52.524Z,94478.30
2018-11-06T14:06:24.412Z,94484.70
2018-11-06T14:08:56.363Z,94483.55
2018-11-06T14:11:28.276Z,94480.62
2018-11-06T14:14:00.118Z,94478.48
2018-11-06T14:16:32.208Z,94477.45
2018-11-06T14:19:04.183Z,94480.20
2018-11-06T14:21:36.113Z,94476.70
2018-11-06T14:24:08.051Z,94480.83
2018-11-06T14:26:40.154Z,94493.19
2018-11-06T14:29:12.013Z,94490.66
2018-11-06T14:31:43.880Z,94488.23
2018-11-06T14:34:15.796Z,94490.16
2018-11-06T14:36:47.841Z,94490.05
2018-11-06T14:39:19.741Z,94487.66
2018-11-06T14:41:51.773Z,94486.92
2018-11-06T14:44:23.716Z,94484.65
2018-11-06T14:46:55.574Z,94495.79
2018-11-06T14:49:27.537Z,94494.70
2018-11-06T14:51:59.336Z,94490.91
2018-11-06T14:54:31.213Z,94492.11
2018-11-06T14:57:03.062Z,94486.55
2018-11-06T14:59:34.951Z,94490.84
2018-11-06T15:02:06.791Z,94493.62
2018-11-06T15:04:38.636Z,94492.49
2018-11-06T15:07:10.588Z,94489.38
2018-11-06T15:09:42.462Z,94493.47
2018-11-06T15:12:14.322Z,94492.20
2018-11-06T15:14:46.352Z,94492.26
2018-11-06T15:17:18.196Z,94487.19
2018-11-06T15:19:50.148Z,94493.55
2018-11-06T15:22:22.055Z,94491.05
2018-11-06T15:24:53.917Z,94486.11
2018-11-06T15:27:25.804Z,94482.60
2018-11-06T15:29:57.608Z,94484.88
2018-11-06T15:32:29.532Z,94484.87
2018-11-06T15:35:01.441Z,94492.83
2018-11-06T15:37:33.421Z,94494.44
2018-11-06T15:40:05.434Z,94499.22
2018-11-06T15:42:37.380Z,94495.33
2018-11-06T15:45:11.744Z,94501.00
2018-11-06T15:47:44.715Z,94500.53
2018-11-06T15:50:17.808Z,94505.22
2018-11-06T15:52:50.494Z,94503.66
2018-11-06T15:55:22.348Z,94508.07
2018-11-06T15:57:54.213Z,94509.72
2018-11-06T16:00:26.137Z,94514.33
2018-11-06T16:02:59.410Z,94500.55
2018-11-06T16:05:50.376Z,94517.00
2018-11-06T16:08:22.366Z,94518.28
2018-11-06T16:10:54.110Z,94524.82
2018-11-06T16:13:26.034Z,94521.87
2018-11-06T16:15:57.907Z,94522.34
2018-11-06T16:18:29.982Z,94520.28
2018-11-06T16:21:01.975Z,94534.89
2018-11-06T16:23:33.929Z,94534.03
2018-11-06T16:26:05.856Z,94534.19
2018-11-06T16:28:37.753Z,94537.00
2018-11-06T16:31:09.778Z,94542.50
2018-11-06T16:33:41.638Z,94542.56
2018-11-06T16:36:13.608Z,94540.44
2018-11-06T16:38:46.592Z,94546.14
2018-11-06T16:41:18.418Z,94545.02
2018-11-06T16:43:50.443Z,94547.48
2018-11-06T16:46:22.335Z,94546.58
2018-11-06T16:48:54.400Z,94551.13
2018-11-06T16:51:26.218Z,94544.19
2018-11-06T16:53:58.215Z,94549.11
2018-11-06T16:56:30.112Z,94552.63
2018-11-06T16:59:01.988Z,94554.17
2018-11-06T17:01:33.850Z,94557.67
2018-11-06T17:04:05.907Z,94557.16
2018-11-06T17:06:51.002Z,94554.55
2018-11-06T17:09:23.181Z,94560.14
2018-11-06T17:11:55.183Z,94550.83
2018-11-06T17:14:27.181Z,94555.45
2018-11-06T17:16:59.086Z,94557.27
2018-11-06T17:19:31.078Z,94559.05
2018-11-06T17:22:02.970Z,94559.20
2018-11-06T17:24:35.031Z,94558.45
2018-11-06T17:27:07.209Z,94567.47
2018-11-06T17:29:39.305Z,94573.38
2018-11-06T17:32:11.143Z,94565.05
2018-11-06T17:34:43.116Z,94570.14
2018-11-06T17:37:14.891Z,94570.30
2018-11-06T17:39:47.128Z,94568.88
2018-11-06T17:42:19.010Z,94567.91
2018-11-06T17:44:50.874Z,94579.47
2018-11-06T17:47:22.708Z,94578.83
2018-11-06T17:49:54.661Z,94575.59
2018-11-06T17:52:26.605Z,94571.84
2018-11-06T17:54:58.662Z,94583.91
2018-11-06T17:57:30.445Z,94585.69
2018-11-06T18:00:02.306Z,94583.25
2018-11-06T18:02:34.267Z,94577.89
2018-11-06T18:05:08.315Z,94586.20
2018-11-06T18:07:40.610Z,94587.48
2018-11-06T18:10:14.167Z,94585.48
2018-11-06T18:12:46.232Z,94589.23
2018-11-06T18:15:18.261Z,94590.84
2018-11-06T18:17:50.322Z,94596.87
2018-11-06T18:20:22.066Z,94592.65
2018-11-06T18:22:53.893Z,94596.04
2018-11-06T18:25:25.901Z,94589.40
2018-11-06T18:27:57.589Z,94588.41
2018-11-06T18:30:36.054Z,94592.98
2018-11-06T18:33:07.864Z,94589.39
2018-11-06T18:35:39.744Z,94593.12
2018-11-06T18:38:11.699Z,94591.16
2018-11-06T18:40:43.671Z,94594.70
2018-11-06T18:43:15.428Z,94591.63
2018-11-06T18:45:47.345Z,94595.19
2018-11-06T18:48:19.160Z,94589.46
2018-11-06T18:50:51.005Z,94596.77
2018-11-06T18:53:22.976Z,94594.47
2018-11-06T18:55:54.901Z,94597.73
2018-11-06T18:58:26.917Z,94598.73
2018-11-06T19:00:58.841Z,94602.79
2018-11-06T19:03:30.611Z,94600.66
2018-11-06T19:06:02.519Z,94605.20
2018-11-06T19:08:34.335Z,94610.55
2018-11-06T19:11:06.319Z,94612.99
2018-11-06T19:13:38.136Z,94613.25
2018-11-06T19:16:09.993Z,94617.81
2018-11-06T19:18:41.882Z,94617.45
2018-11-06T19:21:13.853Z,94626.39
2018-11-06T19:23:45.953Z,94659.89
2018-11-06T19:26:18.041Z,94662.62
2018-11-06T19:28:50.033Z,94662.25
2018-11-06T19:31:22.130Z,94668.39
2018-11-06T19:33:54.022Z,94675.94
2018-11-06T19:36:25.963Z,94671.85
2018-11-06T19:38:57.721Z,94674.44
2018-11-06T19:41:29.610Z,94678.87
2018-11-06T19:44:01.498Z,94680.32
2018-11-06T19:46:33.365Z,94680.81
2018-11-06T19:49:05.337Z,94681.30
2018-11-06T19:51:37.110Z,94687.47
2018-11-06T19:54:09.092Z,94694.91
2018-11-06T19:56:40.999Z,94704.78
2018-11-06T19:59:12.805Z,94708.59
2018-11-06T20:01:44.665Z,94713.80
2018-11-06T20:04:16.539Z,94727.46
2018-11-06T20:06:48.412Z,94722.41
2018-11-06T20:09:20.287Z,94723.59
2018-11-06T20:11:52.323Z,94727.86
2018-11-06T20:14:24.030Z,94732.91
2018-11-06T20:16:55.870Z,94737.59
2018-11-06T20:19:27.695Z,94750.02
2018-11-06T20:21:59.545Z,94751.02
2018-11-06T20:24:31.386Z,94759.63
2018-11-06T20:27:03.313Z,94757.02
2018-11-06T20:29:35.149Z,94758.52
2018-11-06T20:32:07.000Z,94761.96
2018-11-06T20:34:38.849Z,94775.65
2018-11-06T20:37:10.717Z,94771.56
2018-11-06T20:39:42.595Z,94771.90
2018-11-06T20:42:14.415Z,94776.30
2018-11-06T20:44:46.245Z,94782.02
2018-11-06T20:47:18.152Z,94786.73
2018-11-06T20:49:50.074Z,94788.03
2018-11-06T20:52:21.913Z,94791.12
2018-11-06T20:54:53.737Z,94791.14
2018-11-06T20:57:25.791Z,94796.02
2018-11-06T20:59:57.638Z,94804.48
2018-11-06T21:02:29.480Z,94801.56
2018-11-06T21:05:01.319Z,94806.30
2018-11-06T21:07:33.137Z,94806.77
2018-11-06T21:10:04.946Z,94808.07
2018-11-06T21:12:36.804Z,94809.09
2018-11-06T21:15:09.668Z,94820.79
2018-11-06T21:17:41.688Z,94821.61
2018-11-06T21:20:14.323Z,94827.02
2018-11-06T21:22:46.283Z,94826.99
2018-11-06T21:25:18.178Z,94831.20
2018-11-06T21:27:49.974Z,94835.10
2018-11-06T21:30:22.377Z,94834.70
2018-11-06T21:32:56.881Z,94838.34
2018-11-06T21:35:28.720Z,94837.39
2018-11-06T21:38:00.571Z,94843.88
2018-11-06T21:40:32.389Z,94847.11
2018-11-06T21:43:04.222Z,94860.47
2018-11-06T21:45:39.080Z,94852.95
2018-11-06T21:48:10.952Z,94859.11
2018-11-06T21:50:42.769Z,94855.39
2018-11-06T21:53:14.609Z,94859.10
2018-11-06T21:55:46.499Z,94859.31
2018-11-06T21:58:18.318Z,94856.70
2018-11-06T22:00:50.257Z,94860.77
2018-11-06T22:03:22.016Z,94871.66
2018-11-06T22:05:53.822Z,94877.33
2018-11-06T22:08:25.694Z,94885.78
2018-11-06T22:10:57.516Z,94892.13
2018-11-06T22:13:29.358Z,94897.16
2018-11-06T22:16:01.172Z,94904.50
2018-11-06T22:18:33.053Z,94908.30
2018-11-06T22:21:04.866Z,94906.28
2018-11-06T22:23:36.689Z,94916.59
2018-11-06T22:26:08.534Z,94920.75
2018-11-06T22:28:40.376Z,94912.86
2018-11-06T22:31:12.197Z,94919.20
2018-11-06T22:33:44.034Z,94927.09
2018-11-06T22:36:15.864Z,94926.94
2018-11-06T22:38:47.732Z,94928.98
2018-11-06T22:41:19.586Z,94933.34
2018-11-06T22:43:51.430Z,94935.88
2018-11-06T22:46:23.254Z,94947.06
2018-11-06T22:48:55.162Z,94941.71
2018-11-06T22:51:26.977Z,94941.69
2018-11-06T22:53:59.002Z,94941.31
2018-11-06T22:56:30.862Z,94944.03
2018-11-06T22:59:02.680Z,94943.09
2018-11-06T23:01:34.513Z,94944.19
2018-11-06T23:04:06.361Z,94946.79
2018-11-06T23:06:38.232Z,94942.48
2018-11-06T23:09:12.745Z,94949.23
2018-11-06T23:11:44.576Z,94951.86
2018-11-06T23:14:16.392Z,94955.94
2018-11-06T23:16:48.216Z,94958.42
2018-11-06T23:19:20.061Z,94959.95
2018-11-06T23:21:51.879Z,94961.58
2018-11-06T23:24:23.706Z,94965.75
2018-11-06T23:26:55.523Z,94972.29
2018-11-06T23:29:27.368Z,94979.98
2018-11-06T23:31:59.206Z,94975.22
2018-11-06T23:34:31.036Z,94981.17
2018-11-06T23:37:03.117Z,94984.93
2018-11-06T23:39:34.945Z,94987.56
2018-11-06T23:42:07.109Z,94987.34
2018-11-06T23:44:38.960Z,94990.53
2018-11-06T23:47:10.786Z,94992.05
2018-11-06T23:49:42.641Z,94995.28
2018-11-06T23:52:14.431Z,94998.25
2018-11-06T23:54:46.267Z,94991.85
2018-11-06T23:57:18.250Z,95000.63
2018-11-06T23:59:51.078Z,94997.39
